createdAt,value
2018-09-10T00:00:05.420Z,12.70
2018-09-10T00:01:05.436Z,12.60
2018-09-10T00:02:05.429Z,12.52
2018-09-10T00:03:05.387Z,12.52
2018-09-10T00:04:05.378Z,12.47
2018-09-10T00:05:05.364Z,12.49
2018-09-10T00:06:05.353Z,12.42
2018-09-10T00:07:05.381Z,12.49
2018-09-10T00:08:05.330Z,12.41
2018-09-10T00:09:05.323Z,12.41
2018-09-10T00:10:05.308Z,12.45
2018-09-10T00:11:05.302Z,12.38
2018-09-10T00:12:05.309Z,12.35
2018-09-10T00:13:05.276Z,12.27
2018-09-10T00:14:05.266Z,12.37
2018-09-10T00:15:05.262Z,12.34
2018-09-10T00:16:05.256Z,12.38
2018-09-10T00:17:05.232Z,12.34
2018-09-10T00:18:05.223Z,12.38
2018-09-10T00:19:05.234Z,12.38
2018-09-10T00:20:05.197Z,12.34
2018-09-10T00:21:05.212Z,12.34
2018-09-10T00:22:05.180Z,12.41
2018-09-10T00:23:05.164Z,12.34
2018-09-10T00:24:05.158Z,12.37
2018-09-10T00:25:05.163Z,12.34
2018-09-10T00:26:05.252Z,12.29
2018-09-10T00:27:05.120Z,12.23
2018-09-10T00:28:05.114Z,12.34
2018-09-10T00:29:05.099Z,12.34
2018-09-10T00:30:05.088Z,12.24
2018-09-10T00:31:05.101Z,12.17
2018-09-10T00:32:05.069Z,12.17
2018-09-10T00:33:05.053Z,12.24
2018-09-10T00:34:05.043Z,12.12
2018-09-10T00:35:05.032Z,12.09
2018-09-10T00:36:05.048Z,12.10
2018-09-10T00:37:05.008Z,12.05
2018-09-10T00:38:05.002Z,12.12
2018-09-10T00:39:04.987Z,12.10
2018-09-10T00:40:04.975Z,12.07
2018-09-10T00:41:04.989Z,12.05
2018-09-10T00:42:04.954Z,12.02
2018-09-10T00:43:04.945Z,12.13
2018-09-10T00:44:04.931Z,12.09
2018-09-10T00:45:04.920Z,12.04
2018-09-10T00:46:04.934Z,12.14
2018-09-10T00:47:04.897Z,12.04
2018-09-10T00:48:04.891Z,12.09
2018-09-10T00:49:04.881Z,12.07
2018-09-10T00:50:04.866Z,12.05
2018-09-10T00:51:04.939Z,12.07
2018-09-10T00:52:04.870Z,12.13
2018-09-10T00:53:04.839Z,12.09
2018-09-10T00:54:04.821Z,12.13
2018-09-10T00:55:04.813Z,12.14
2018-09-10T00:56:04.805Z,12.10
2018-09-10T00:57:04.901Z,12.09
2018-09-10T00:58:04.776Z,12.09
2018-09-10T00:59:04.767Z,12.09
2018-09-10T01:00:04.754Z,12.10
2018-09-10T01:01:04.745Z,12.10
2018-09-10T01:02:04.853Z,12.10
2018-09-10T01:03:04.721Z,12.10
2018-09-10T01:04:04.714Z,12.12
2018-09-10T01:05:04.699Z,12.17
2018-09-10T01:06:04.691Z,12.13
2018-09-10T01:07:04.697Z,12.19
2018-09-10T01:08:04.668Z,12.20
2018-09-10T01:09:04.653Z,12.21
2018-09-10T01:10:04.647Z,12.27
2018-09-10T01:11:04.653Z,12.23
2018-09-10T01:12:04.621Z,12.24
2018-09-10T01:13:04.631Z,12.24
2018-09-10T01:14:04.599Z,12.28
2018-09-10T01:15:04.587Z,12.27
2018-09-10T01:16:04.576Z,12.34
2018-09-10T01:17:04.571Z,12.42
2018-09-10T01:18:04.580Z,12.37
2018-09-10T01:19:04.545Z,12.35
2018-09-10T01:20:04.537Z,12.31
2018-09-10T01:21:04.542Z,12.37
2018-09-10T01:22:04.509Z,12.29
2018-09-10T01:23:04.527Z,12.39
2018-09-10T01:24:04.488Z,12.28
2018-09-10T01:25:04.478Z,12.31
2018-09-10T01:26:04.465Z,12.31
2018-09-10T01:27:04.458Z,12.28
2018-09-10T01:28:04.464Z,12.32
2018-09-10T01:29:04.432Z,12.27
2018-09-10T01:30:04.421Z,12.20
2018-09-10T01:31:04.431Z,12.28
2018-09-10T01:32:04.404Z,12.24
2018-09-10T01:33:04.387Z,12.14
2018-09-10T01:34:04.402Z,12.17
2018-09-10T01:35:04.365Z,12.24
2018-09-10T01:36:04.385Z,12.21
2018-09-10T01:37:04.384Z,12.19
2018-09-10T01:38:04.332Z,12.23
2018-09-10T01:39:04.321Z,12.20
2018-09-10T01:40:04.311Z,12.24
2018-09-10T01:41:04.308Z,12.21
2018-09-10T01:42:04.319Z,12.13
2018-09-10T01:43:04.283Z,12.13
2018-09-10T01:44:04.292Z,12.10
2018-09-10T01:45:04.256Z,12.05
2018-09-10T01:46:04.242Z,12.07
2018-09-10T01:47:04.245Z,12.04
2018-09-10T01:48:04.221Z,11.91
2018-09-10T01:49:04.213Z,11.83
2018-09-10T01:50:04.198Z,11.85
2018-09-10T01:51:04.187Z,11.88
2018-09-10T01:52:04.197Z,11.83
2018-09-10T01:53:04.165Z,11.83
2018-09-10T01:54:04.156Z,11.80
2018-09-10T01:55:04.144Z,11.83
2018-09-10T01:56:04.134Z,11.85
2018-09-10T01:57:04.142Z,11.83
2018-09-10T01:58:04.109Z,11.82
2018-09-10T01:59:04.099Z,11.85
2018-09-10T02:00:04.088Z,11.82
2018-09-10T02:01:04.077Z,11.80
2018-09-10T02:02:04.087Z,11.80
2018-09-10T02:03:04.056Z,11.83
2018-09-10T02:04:04.043Z,11.83
2018-09-10T02:05:04.032Z,11.91
2018-09-10T02:06:04.021Z,11.88
2018-09-10T02:07:04.033Z,11.86
2018-09-10T02:08:03.999Z,11.86
2018-09-10T02:09:03.988Z,11.88
2018-09-10T02:10:03.977Z,11.86
2018-09-10T02:11:03.987Z,11.91
2018-09-10T02:12:03.996Z,11.82
2018-09-10T02:13:03.944Z,11.86
2018-09-10T02:14:03.932Z,11.91
2018-09-10T02:15:03.921Z,11.94
2018-09-10T02:16:03.913Z,11.96
2018-09-10T02:17:04.001Z,11.95
2018-09-10T02:18:03.891Z,11.95
2018-09-10T02:19:03.878Z,11.86
2018-09-10T02:20:03.867Z,11.83
2018-09-10T02:21:03.857Z,11.83
2018-09-10T02:22:03.873Z,11.82
2018-09-10T02:23:03.835Z,11.83
2018-09-10T02:24:03.824Z,11.94
2018-09-10T02:25:03.819Z,11.86
2018-09-10T02:26:03.808Z,11.95
2018-09-10T02:27:03.812Z,11.83
2018-09-10T02:28:03.780Z,11.86
2018-09-10T02:29:03.782Z,11.85
2018-09-10T02:30:03.762Z,11.80
2018-09-10T02:31:03.753Z,11.85
2018-09-10T02:32:03.767Z,11.88
2018-09-10T02:33:03.727Z,11.86
2018-09-10T02:34:03.713Z,11.83
2018-09-10T02:35:03.704Z,11.80
2018-09-10T02:36:03.690Z,11.83
2018-09-10T02:37:03.700Z,11.85
2018-09-10T02:38:03.702Z,11.85
2018-09-10T02:39:03.663Z,11.88
2018-09-10T02:40:03.647Z,11.88
2018-09-10T02:41:03.634Z,11.86
2018-09-10T02:42:03.622Z,11.79
2018-09-10T02:43:03.673Z,11.78
2018-09-10T02:44:03.620Z,11.70
2018-09-10T02:45:03.597Z,11.78
2018-09-10T02:46:03.581Z,11.69
2018-09-10T02:47:03.570Z,11.70
2018-09-10T02:48:03.578Z,11.70
2018-09-10T02:49:03.568Z,11.73
2018-09-10T02:50:03.539Z,11.67
2018-09-10T02:51:03.549Z,11.73
2018-09-10T02:52:03.513Z,11.72
2018-09-10T02:53:03.502Z,11.73
2018-09-10T02:54:03.491Z,11.69
2018-09-10T02:55:03.556Z,11.70
2018-09-10T02:56:03.508Z,11.78
2018-09-10T02:57:03.465Z,11.65
2018-09-10T02:58:03.447Z,11.57
2018-09-10T02:59:03.436Z,11.57
2018-09-10T03:00:03.426Z,11.55
2018-09-10T03:01:03.454Z,11.64
2018-09-10T03:02:03.403Z,11.54
2018-09-10T03:03:03.393Z,11.49
2018-09-10T03:04:03.379Z,11.51
2018-09-10T03:05:03.372Z,11.40
2018-09-10T03:06:03.397Z,11.40
2018-09-10T03:07:03.347Z,11.52
2018-09-10T03:08:03.337Z,11.42
2018-09-10T03:09:03.324Z,11.46
2018-09-10T03:10:03.313Z,11.46
2018-09-10T03:11:03.332Z,11.40
2018-09-10T03:12:03.291Z,11.43
2018-09-10T03:13:03.280Z,11.42
2018-09-10T03:14:03.269Z,11.37
2018-09-10T03:15:03.261Z,11.33
2018-09-10T03:16:03.271Z,11.40
2018-09-10T03:17:03.235Z,11.40
2018-09-10T03:18:03.295Z,11.37
2018-09-10T03:19:03.214Z,11.40
2018-09-10T03:20:03.204Z,11.35
2018-09-10T03:21:03.218Z,11.36
2018-09-10T03:22:03.202Z,11.39
2018-09-10T03:23:03.170Z,11.43
2018-09-10T03:24:03.209Z,11.40
2018-09-10T03:25:03.146Z,11.35
2018-09-10T03:26:03.135Z,11.40
2018-09-10T03:27:03.155Z,11.37
2018-09-10T03:28:03.114Z,11.36
2018-09-10T03:29:03.103Z,11.40
2018-09-10T03:30:03.092Z,11.32
2018-09-10T03:31:03.081Z,11.36
2018-09-10T03:32:03.092Z,11.33
2018-09-10T03:33:03.058Z,11.37
2018-09-10T03:34:03.047Z,11.28
2018-09-10T03:35:03.036Z,11.42
2018-09-10T03:36:03.029Z,11.39
2018-09-10T03:37:03.035Z,11.40
2018-09-10T03:38:03.003Z,11.43
2018-09-10T03:39:02.993Z,11.36
2018-09-10T03:40:02.981Z,11.42
2018-09-10T03:41:02.969Z,11.40
2018-09-10T03:42:02.983Z,11.37
2018-09-10T03:43:02.963Z,11.42
2018-09-10T03:44:02.939Z,11.37
2018-09-10T03:45:02.984Z,11.43
2018-09-10T03:46:02.914Z,11.42
2018-09-10T03:47:02.903Z,11.42
2018-09-10T03:48:02.922Z,11.49
2018-09-10T03:49:02.881Z,11.47
2018-09-10T03:50:02.870Z,11.42
2018-09-10T03:51:02.859Z,11.44
2018-09-10T03:52:02.847Z,11.47
2018-09-10T03:53:02.867Z,11.52
2018-09-10T03:54:02.828Z,11.52
2018-09-10T03:55:02.815Z,11.43
2018-09-10T03:56:02.807Z,11.51
2018-09-10T03:57:02.793Z,11.40
2018-09-10T03:58:02.811Z,11.43
2018-09-10T03:59:02.774Z,11.39
2018-09-10T04:00:02.761Z,11.44
2018-09-10T04:01:02.748Z,11.43
2018-09-10T04:02:02.738Z,11.33
2018-09-10T04:03:02.746Z,11.42
2018-09-10T04:04:02.736Z,11.35
2018-09-10T04:05:02.707Z,11.39
2018-09-10T04:06:02.693Z,11.36
2018-09-10T04:07:02.683Z,11.29
2018-09-10T04:08:02.670Z,11.40
2018-09-10T04:09:02.693Z,11.39
2018-09-10T04:10:02.649Z,11.36
2018-09-10T04:11:02.637Z,11.37
2018-09-10T04:12:02.627Z,11.39
2018-09-10T04:13:02.615Z,11.43
2018-09-10T04:14:02.633Z,11.44
2018-09-10T04:15:02.594Z,11.39
2018-09-10T04:16:02.581Z,11.40
2018-09-10T04:17:02.634Z,11.35
2018-09-10T04:18:02.565Z,11.44
2018-09-10T04:19:02.571Z,11.36
2018-09-10T04:20:02.537Z,11.42
2018-09-10T04:21:02.526Z,11.35
2018-09-10T04:22:02.538Z,11.43
2018-09-10T04:23:02.505Z,11.37
2018-09-10T04:24:02.493Z,11.37
2018-09-10T04:25:02.483Z,11.35
2018-09-10T04:26:02.514Z,11.27
2018-09-10T04:27:02.496Z,11.33
2018-09-10T04:28:02.453Z,11.28
2018-09-10T04:29:02.438Z,11.27
2018-09-10T04:30:02.431Z,11.33
2018-09-10T04:31:02.416Z,11.46
2018-09-10T04:32:02.426Z,11.29
2018-09-10T04:33:02.396Z,11.19
2018-09-10T04:34:02.550Z,11.40
2018-09-10T04:35:02.374Z,11.32
2018-09-10T04:36:02.457Z,11.27
2018-09-10T04:37:02.375Z,11.33
2018-09-10T04:38:02.360Z,11.37
2018-09-10T04:39:02.331Z,11.33
2018-09-10T04:40:02.319Z,11.37
2018-09-10T04:41:02.328Z,11.40
2018-09-10T04:42:02.308Z,11.27
2018-09-10T04:43:02.315Z,11.39
2018-09-10T04:44:02.273Z,11.28
2018-09-10T04:45:02.283Z,11.27
2018-09-10T04:46:02.251Z,11.42
2018-09-10T04:47:02.240Z,11.36
2018-09-10T04:48:02.261Z,11.40
2018-09-10T04:49:02.217Z,11.40
2018-09-10T04:50:02.206Z,11.25
2018-09-10T04:51:02.197Z,11.36
2018-09-10T04:52:02.186Z,11.28
2018-09-10T04:53:02.202Z,11.25
2018-09-10T04:54:02.163Z,11.35
2018-09-10T04:55:02.151Z,11.39
2018-09-10T04:56:02.143Z,11.25
2018-09-10T04:57:02.129Z,11.32
2018-09-10T04:58:02.207Z,11.39
2018-09-10T04:59:02.107Z,11.36
2018-09-10T05:00:02.098Z,11.36
2018-09-10T05:01:02.168Z,11.37
2018-09-10T05:02:02.075Z,11.39
2018-09-10T05:03:02.084Z,11.46
2018-09-10T05:04:02.053Z,11.37
2018-09-10T05:05:02.043Z,11.47
2018-09-10T05:06:02.030Z,11.43
2018-09-10T05:07:02.040Z,11.55
2018-09-10T05:08:02.011Z,11.64
2018-09-10T05:09:01.999Z,11.55
2018-09-10T05:10:02.066Z,11.58
2018-09-10T05:11:01.974Z,11.67
2018-09-10T05:12:01.963Z,11.65
2018-09-10T05:13:01.955Z,11.73
2018-09-10T05:14:01.941Z,11.73
2018-09-10T05:15:01.951Z,11.72
2018-09-10T05:16:01.920Z,11.83
2018-09-10T05:17:01.908Z,11.82
2018-09-10T05:18:01.897Z,11.85
2018-09-10T05:19:01.887Z,11.94
2018-09-10T05:20:01.909Z,11.86
2018-09-10T05:21:01.864Z,11.86
2018-09-10T05:22:01.906Z,11.96
2018-09-10T05:23:01.841Z,11.95
2018-09-10T05:24:01.830Z,11.99
2018-09-10T05:25:01.841Z,12.02
2018-09-10T05:26:01.807Z,12.09
2018-09-10T05:27:01.800Z,12.12
2018-09-10T05:28:01.793Z,12.13
2018-09-10T05:29:01.776Z,12.14
2018-09-10T05:30:01.789Z,12.10
2018-09-10T05:31:01.774Z,12.23
2018-09-10T05:32:01.767Z,12.24
2018-09-10T05:33:01.731Z,12.29
2018-09-10T05:34:01.719Z,12.34
2018-09-10T05:35:01.710Z,12.45
2018-09-10T05:36:01.697Z,12.47
2018-09-10T05:37:01.710Z,12.45
2018-09-10T05:38:01.676Z,12.64
2018-09-10T05:39:01.666Z,12.60
2018-09-10T05:40:01.653Z,12.68
2018-09-10T05:41:01.641Z,12.70
2018-09-10T05:42:01.662Z,12.70
2018-09-10T05:43:01.618Z,12.75
2018-09-10T05:44:01.610Z,12.82
2018-09-10T05:45:01.606Z,12.89
2018-09-10T05:46:01.595Z,12.87
2018-09-10T05:47:01.683Z,12.95
2018-09-10T05:48:01.563Z,13.00
2018-09-10T05:49:01.553Z,13.14
2018-09-10T05:50:01.549Z,12.97
2018-09-10T05:51:01.536Z,13.08
2018-09-10T05:52:01.549Z,13.17
2018-09-10T05:53:01.511Z,13.25
2018-09-10T05:54:01.496Z,13.38
2018-09-10T05:55:01.486Z,13.33
2018-09-10T05:56:01.477Z,13.44
2018-09-10T05:57:01.485Z,13.46
2018-09-10T05:58:01.452Z,13.55
2018-09-10T05:59:01.443Z,13.52
2018-09-10T06:00:01.453Z,13.54
2018-09-10T06:01:01.420Z,13.75
2018-09-10T06:02:01.429Z,13.71
2018-09-10T06:03:01.401Z,13.73
2018-09-10T06:04:01.387Z,13.79
2018-09-10T06:05:01.374Z,13.85
2018-09-10T06:06:01.368Z,13.92
2018-09-10T06:07:01.373Z,14.02
2018-09-10T06:08:01.345Z,14.15
2018-09-10T06:09:01.331Z,14.20
2018-09-10T06:10:01.321Z,14.25
2018-09-10T06:11:01.328Z,14.20
2018-09-10T06:12:01.300Z,14.22
2018-09-10T06:13:01.285Z,14.29
2018-09-10T06:14:01.277Z,14.28
2018-09-10T06:15:01.305Z,14.39
2018-09-10T06:16:01.252Z,14.42
2018-09-10T06:17:01.242Z,14.54
2018-09-10T06:18:01.229Z,14.60
2018-09-10T06:19:01.219Z,14.50
2018-09-10T06:20:01.229Z,14.65
2018-09-10T06:21:01.200Z,14.75
2018-09-10T06:22:01.187Z,14.80
2018-09-10T06:23:01.196Z,14.81
2018-09-10T06:24:01.163Z,14.83
2018-09-10T06:25:01.152Z,14.89
2018-09-10T06:26:01.141Z,14.92
2018-09-10T06:27:01.129Z,15.01
2018-09-10T06:28:01.149Z,15.09
2018-09-10T06:29:01.107Z,15.17
2018-09-10T06:30:01.100Z,15.21
2018-09-10T06:31:01.091Z,15.19
2018-09-10T06:32:01.076Z,15.16
2018-09-10T06:33:01.102Z,15.34
2018-09-10T06:34:01.057Z,15.35
2018-09-10T06:35:01.043Z,15.43
2018-09-10T06:36:01.030Z,15.43
2018-09-10T06:37:01.026Z,15.39
2018-09-10T06:38:01.031Z,15.44
2018-09-10T06:39:01.002Z,15.53
2018-09-10T06:40:00.986Z,15.59
2018-09-10T06:41:01.005Z,15.56
2018-09-10T06:42:00.964Z,15.64
2018-09-10T06:43:00.953Z,15.60
2018-09-10T06:44:00.943Z,15.62
2018-09-10T06:45:00.932Z,15.64
2018-09-10T06:46:00.942Z,15.69
2018-09-10T06:47:00.909Z,15.82
2018-09-10T06:48:00.898Z,15.74
2018-09-10T06:49:00.887Z,15.83
2018-09-10T06:50:00.875Z,15.82
2018-09-10T06:51:00.887Z,15.97
2018-09-10T06:52:00.891Z,16.05
2018-09-10T06:53:00.845Z,16.07
2018-09-10T06:54:00.831Z,16.12
2018-09-10T06:55:00.820Z,16.17
2018-09-10T06:56:00.808Z,16.17
2018-09-10T06:57:00.819Z,16.17
2018-09-10T06:58:00.815Z,16.15
2018-09-10T06:59:00.776Z,16.35
2018-09-10T07:00:00.785Z,16.39
2018-09-10T07:01:00.760Z,16.38
2018-09-10T07:02:00.861Z,16.46
2018-09-10T07:03:00.733Z,16.45
2018-09-10T07:04:00.723Z,16.53
2018-09-10T07:05:00.714Z,16.56
2018-09-10T07:06:00.698Z,16.61
2018-09-10T07:07:00.724Z,16.61
2018-09-10T07:08:00.679Z,16.63
2018-09-10T07:09:00.666Z,16.64
2018-09-10T07:10:00.653Z,16.76
2018-09-10T07:11:00.641Z,16.83
2018-09-10T07:12:00.657Z,16.86
2018-09-10T07:13:00.645Z,17.00
2018-09-10T07:14:00.609Z,17.00
2018-09-10T07:15:00.598Z,17.11
2018-09-10T07:16:00.615Z,17.18
2018-09-10T07:17:00.578Z,17.21
2018-09-10T07:18:00.593Z,17.28
2018-09-10T07:19:00.649Z,17.38
2018-09-10T07:20:00.543Z,17.51
2018-09-10T07:21:00.534Z,17.49
2018-09-10T07:22:00.520Z,17.56
2018-09-10T07:23:00.532Z,17.56
2018-09-10T07:24:00.500Z,17.49
2018-09-10T07:25:00.486Z,17.62
2018-09-10T07:26:00.477Z,17.59
2018-09-10T07:27:00.465Z,17.64
2018-09-10T07:28:00.480Z,17.71
2018-09-10T07:29:00.472Z,17.63
2018-09-10T07:30:00.433Z,17.75
2018-09-10T07:31:00.421Z,17.71
2018-09-10T07:32:00.408Z,17.75
2018-09-10T07:33:00.398Z,17.87
2018-09-10T07:34:00.410Z,17.92
2018-09-10T07:35:00.384Z,17.92
2018-09-10T07:36:00.364Z,18.00
2018-09-10T07:37:00.378Z,18.00
2018-09-10T07:38:00.350Z,18.05
2018-09-10T07:39:00.336Z,18.17
2018-09-10T07:40:00.349Z,18.17
2018-09-10T07:41:00.309Z,18.17
2018-09-10T07:42:00.307Z,18.30
2018-09-10T07:43:00.311Z,18.32
2018-09-10T07:44:00.382Z,18.26
2018-09-10T07:45:00.265Z,18.26
2018-09-10T07:46:00.255Z,18.30
2018-09-10T07:47:00.245Z,18.27
2018-09-10T07:48:00.257Z,18.41
2018-09-10T07:49:00.312Z,18.30
2018-09-10T07:50:00.210Z,18.41
2018-09-10T07:51:00.198Z,18.47
2018-09-10T07:52:00.188Z,18.41
2018-09-10T07:53:00.197Z,18.50
2018-09-10T07:54:00.167Z,18.55
2018-09-10T07:55:00.156Z,18.58
2018-09-10T07:56:00.144Z,18.51
2018-09-10T07:57:00.172Z,18.51
2018-09-10T07:58:00.144Z,18.60
2018-09-10T07:59:00.112Z,18.47
2018-09-10T08:00:00.099Z,18.54
2018-09-10T08:01:00.091Z,18.47
2018-09-10T08:02:00.077Z,18.52
2018-09-10T08:03:00.109Z,18.60
2018-09-10T08:04:00.055Z,18.55
2018-09-10T08:05:00.069Z,18.55
2018-09-10T08:06:00.036Z,18.52
2018-09-10T08:07:00.022Z,18.58
2018-09-10T08:08:00.034Z,18.69
2018-09-10T08:09:00.016Z,18.65
2018-09-10T08:10:00.015Z,18.65
2018-09-10T08:11:00.000Z,18.70
2018-09-10T08:11:59.970Z,18.70
2018-09-10T08:12:59.963Z,18.67
2018-09-10T08:13:59.951Z,18.80
2018-09-10T08:14:59.936Z,18.85
2018-09-10T08:15:59.945Z,18.78
2018-09-10T08:16:59.913Z,18.78
2018-09-10T08:17:59.905Z,18.81
2018-09-10T08:18:59.895Z,18.94
2018-09-10T08:19:59.904Z,18.94
2018-09-10T08:20:59.890Z,18.98
2018-09-10T08:21:59.856Z,18.98
2018-09-10T08:22:59.845Z,19.02
2018-09-10T08:23:59.890Z,18.98
2018-09-10T08:24:59.845Z,18.95
2018-09-10T08:25:59.814Z,19.00
2018-09-10T08:26:59.804Z,18.98
2018-09-10T08:27:59.791Z,19.04
2018-09-10T08:28:59.816Z,19.07
2018-09-10T08:29:59.770Z,19.14
2018-09-10T08:30:59.760Z,19.31
2018-09-10T08:31:59.747Z,19.26
2018-09-10T08:32:59.737Z,19.37
2018-09-10T08:33:59.749Z,19.54
2018-09-10T08:34:59.714Z,19.56
2018-09-10T08:35:59.741Z,19.66
2018-09-10T08:36:59.694Z,19.65
2018-09-10T08:37:59.684Z,19.74
2018-09-10T08:38:59.670Z,19.80
2018-09-10T08:39:59.658Z,19.88
2018-09-10T08:40:59.670Z,19.91
2018-09-10T08:41:59.660Z,20.03
2018-09-10T08:42:59.698Z,19.96
2018-09-10T08:43:59.615Z,20.14
2018-09-10T08:44:59.605Z,20.02
2018-09-10T08:45:59.593Z,20.02
2018-09-10T08:46:59.603Z,19.96
2018-09-10T08:47:59.571Z,20.06
2018-09-10T08:48:59.559Z,19.96
2018-09-10T08:49:59.547Z,19.94
2018-09-10T08:50:59.537Z,19.95
2018-09-10T08:51:59.548Z,19.88
2018-09-10T08:52:59.523Z,19.98
2018-09-10T08:53:59.595Z,19.95
2018-09-10T08:54:59.787Z,20.03
2018-09-10T08:55:59.685Z,19.96
2018-09-10T08:56:59.507Z,19.91
2018-09-10T08:57:59.502Z,19.86
2018-09-10T08:58:59.448Z,19.80
2018-09-10T08:59:59.438Z,19.84
2018-09-10T09:00:59.430Z,19.86
2018-09-10T09:01:59.442Z,19.86
2018-09-10T09:02:59.435Z,19.94
2018-09-10T09:03:59.392Z,20.20
2018-09-10T09:04:59.385Z,20.48
2018-09-10T09:05:59.446Z,20.80
2018-09-10T09:06:59.363Z,21.21
2018-09-10T09:07:59.441Z,21.49
2018-09-10T09:08:59.339Z,21.90
2018-09-10T09:09:59.332Z,22.00
2018-09-10T09:10:59.342Z,22.21
2018-09-10T09:11:59.312Z,22.18
2018-09-10T09:12:59.315Z,22.40
2018-09-10T09:13:59.306Z,22.57
2018-09-10T09:14:59.273Z,22.68
2018-09-10T09:15:59.265Z,22.92
2018-09-10T09:16:59.253Z,22.95
2018-09-10T09:17:59.259Z,23.17
2018-09-10T09:18:59.229Z,23.20
2018-09-10T09:19:59.218Z,23.43
2018-09-10T09:20:59.204Z,23.72
2018-09-10T09:21:59.221Z,23.83
2018-09-10T09:22:59.272Z,24.06
2018-09-10T09:23:59.174Z,23.91
2018-09-10T09:24:59.166Z,23.95
2018-09-10T09:25:59.186Z,24.10
2018-09-10T09:26:59.240Z,24.20
2018-09-10T09:27:59.151Z,24.37
2018-09-10T09:28:59.118Z,24.31
2018-09-10T09:29:59.109Z,24.34
2018-09-10T09:30:59.098Z,24.40
2018-09-10T09:31:59.089Z,24.71
2018-09-10T09:32:59.114Z,24.76
2018-09-10T09:33:59.071Z,24.68
2018-09-10T09:34:59.061Z,24.52
2018-09-10T09:35:59.043Z,24.37
2018-09-10T09:36:59.032Z,24.57
2018-09-10T09:37:59.056Z,24.78
2018-09-10T09:38:59.009Z,25.03
2018-09-10T09:39:58.999Z,25.13
2018-09-10T09:40:58.987Z,25.28
2018-09-10T09:41:58.979Z,25.24
2018-09-10T09:42:58.987Z,25.23
2018-09-10T09:43:58.979Z,25.24
2018-09-10T09:44:58.944Z,25.40
2018-09-10T09:45:58.936Z,25.27
2018-09-10T09:46:58.922Z,25.40
2018-09-10T09:47:58.915Z,25.46
2018-09-10T09:48:58.922Z,25.43
2018-09-10T09:49:58.892Z,25.65
2018-09-10T09:50:58.881Z,25.38
2018-09-10T09:51:58.868Z,24.93
2018-09-10T09:52:58.858Z,24.39
2018-09-10T09:53:58.867Z,24.22
2018-09-10T09:54:58.840Z,24.53
2018-09-10T09:55:58.825Z,24.34
2018-09-10T09:56:58.874Z,24.42
2018-09-10T09:57:58.805Z,24.37
2018-09-10T09:58:58.793Z,24.65
2018-09-10T09:59:58.789Z,24.88
2018-09-10T10:00:58.771Z,25.23
2018-09-10T10:01:58.793Z,25.42
2018-09-10T10:02:58.751Z,25.60
2018-09-10T10:03:58.748Z,25.80
2018-09-10T10:04:58.729Z,25.82
2018-09-10T10:05:58.725Z,25.46
2018-09-10T10:06:58.748Z,25.45
2018-09-10T10:07:58.697Z,25.21
2018-09-10T10:08:58.685Z,25.36
2018-09-10T10:09:58.674Z,25.03
2018-09-10T10:10:58.663Z,24.93
2018-09-10T10:11:58.732Z,24.71
2018-09-10T10:12:58.666Z,24.62
2018-09-10T10:13:58.631Z,24.58
2018-09-10T10:14:58.655Z,24.55
2018-09-10T10:15:58.630Z,24.62
2018-09-10T10:16:58.598Z,24.65
2018-09-10T10:17:58.590Z,24.64
2018-09-10T10:18:58.599Z,24.42
2018-09-10T10:19:58.589Z,24.46
2018-09-10T10:20:58.556Z,24.37
2018-09-10T10:21:58.649Z,24.45
2018-09-10T10:22:58.538Z,24.50
2018-09-10T10:23:58.526Z,24.62
2018-09-10T10:24:58.515Z,24.58
2018-09-10T10:25:58.504Z,24.87
2018-09-10T10:26:58.529Z,24.77
2018-09-10T10:27:58.477Z,24.71
2018-09-10T10:28:58.467Z,24.69
2018-09-10T10:29:58.478Z,24.73
2018-09-10T10:30:58.484Z,24.67
2018-09-10T10:31:58.439Z,24.64
2018-09-10T10:32:58.425Z,24.61
2018-09-10T10:33:58.415Z,24.76
2018-09-10T10:34:58.412Z,24.96
2018-09-10T10:35:58.417Z,24.95
2018-09-10T10:36:58.380Z,25.02
2018-09-10T10:37:58.372Z,25.03
2018-09-10T10:38:58.359Z,24.99
2018-09-10T10:39:58.374Z,24.98
2018-09-10T10:40:58.367Z,24.85
2018-09-10T10:41:58.328Z,24.88
2018-09-10T10:42:58.321Z,24.93
2018-09-10T10:43:58.326Z,25.00
2018-09-10T10:44:58.317Z,24.93
2018-09-10T10:45:58.284Z,25.00
2018-09-10T10:46:58.274Z,24.93
2018-09-10T10:47:58.262Z,24.98
2018-09-10T10:48:58.364Z,25.15
2018-09-10T10:49:58.261Z,25.25
2018-09-10T10:50:58.232Z,25.21
2018-09-10T10:51:58.242Z,25.36
2018-09-10T10:52:58.209Z,25.45
2018-09-10T10:53:58.198Z,25.43
2018-09-10T10:54:58.190Z,25.52
2018-09-10T10:55:58.209Z,25.60
2018-09-10T10:56:58.165Z,25.65
2018-09-10T10:57:58.156Z,25.70
2018-09-10T10:58:58.144Z,25.69
2018-09-10T10:59:58.133Z,25.77
2018-09-10T11:00:58.145Z,25.72
2018-09-10T11:01:58.154Z,25.76
2018-09-10T11:02:58.105Z,25.72
2018-09-10T11:03:58.095Z,25.79
2018-09-10T11:04:58.081Z,25.83
2018-09-10T11:05:58.073Z,25.73
2018-09-10T11:06:58.085Z,25.79
2018-09-10T11:07:58.053Z,25.90
2018-09-10T11:08:58.037Z,26.06
2018-09-10T11:09:58.027Z,26.12
2018-09-10T11:10:58.017Z,26.35
2018-09-10T11:11:58.031Z,26.51
2018-09-10T11:12:57.994Z,26.76
2018-09-10T11:13:58.032Z,26.70
2018-09-10T11:14:57.972Z,26.97
2018-09-10T11:15:57.961Z,27.04
2018-09-10T11:16:57.956Z,26.92
2018-09-10T11:17:57.940Z,26.85
2018-09-10T11:18:58.048Z,26.62
2018-09-10T11:19:57.920Z,26.57
2018-09-10T11:20:57.910Z,26.45
2018-09-10T11:21:57.896Z,26.36
2018-09-10T11:22:57.885Z,26.28
2018-09-10T11:23:57.963Z,26.07
2018-09-10T11:24:57.867Z,26.02
2018-09-10T11:25:57.853Z,26.15
2018-09-10T11:26:57.841Z,26.15
2018-09-10T11:27:57.865Z,26.26
2018-09-10T11:28:57.820Z,26.39
2018-09-10T11:29:57.809Z,26.51
2018-09-10T11:30:57.802Z,26.80
2018-09-10T11:31:57.792Z,26.88
2018-09-10T11:32:57.808Z,26.94
2018-09-10T11:33:57.768Z,26.88
2018-09-10T11:34:57.755Z,26.72
2018-09-10T11:35:57.766Z,26.62
2018-09-10T11:36:57.736Z,26.55
2018-09-10T11:37:57.724Z,26.50
2018-09-10T11:38:57.713Z,26.43
2018-09-10T11:39:57.702Z,26.28
2018-09-10T11:40:57.750Z,26.29
2018-09-10T11:41:57.680Z,26.29
2018-09-10T11:42:57.671Z,26.47
2018-09-10T11:43:57.658Z,26.63
2018-09-10T11:44:57.652Z,26.63
2018-09-10T11:45:57.674Z,26.52
2018-09-10T11:46:57.626Z,26.45
2018-09-10T11:47:57.615Z,26.43
2018-09-10T11:48:57.604Z,26.40
2018-09-10T11:49:57.594Z,26.26
2018-09-10T11:50:57.609Z,26.15
2018-09-10T11:51:57.572Z,26.10
2018-09-10T11:52:57.564Z,25.94
2018-09-10T11:53:57.550Z,25.92
2018-09-10T11:54:57.549Z,25.90
2018-09-10T11:55:57.556Z,25.92
2018-09-10T11:56:57.518Z,25.82
2018-09-10T11:57:57.509Z,25.77
2018-09-10T11:58:57.495Z,25.73
2018-09-10T11:59:57.509Z,25.64
2018-09-10T12:00:57.474Z,25.64
2018-09-10T12:01:57.530Z,25.50
2018-09-10T12:02:57.475Z,25.40
2018-09-10T12:03:57.443Z,25.32
2018-09-10T12:04:57.431Z,25.46
2018-09-10T12:05:57.420Z,25.43
2018-09-10T12:06:57.411Z,25.33
2018-09-10T12:07:57.422Z,25.43
2018-09-10T12:08:57.387Z,25.39
2018-09-10T12:09:57.377Z,25.51
2018-09-10T12:10:57.407Z,25.52
2018-09-10T12:11:57.356Z,25.46
2018-09-10T12:12:57.346Z,25.46
2018-09-10T12:13:57.335Z,25.55
2018-09-10T12:14:57.324Z,25.61
2018-09-10T12:15:57.339Z,25.61
2018-09-10T12:16:57.344Z,25.57
2018-09-10T12:17:57.293Z,25.57
2018-09-10T12:18:57.308Z,25.42
2018-09-10T12:19:57.273Z,25.43
2018-09-10T12:20:57.261Z,25.46
2018-09-10T12:21:57.271Z,25.47
2018-09-10T12:22:57.241Z,25.43
2018-09-10T12:23:57.252Z,25.51
2018-09-10T12:24:57.217Z,25.47
2018-09-10T12:25:57.205Z,25.55
2018-09-10T12:26:57.196Z,25.62
2018-09-10T12:27:57.207Z,25.50
2018-09-10T12:28:57.180Z,25.51
2018-09-10T12:29:57.167Z,25.55
2018-09-10T12:30:57.155Z,25.67
2018-09-10T12:31:57.142Z,25.69
2018-09-10T12:32:57.595Z,25.75
2018-09-10T12:33:57.121Z,25.73
2018-09-10T12:34:57.110Z,25.91
2018-09-10T12:35:57.114Z,25.91
2018-09-10T12:36:57.117Z,25.94
2018-09-10T12:37:57.077Z,25.91
2018-09-10T12:38:57.086Z,25.97
2018-09-10T12:39:57.055Z,26.02
2018-09-10T12:40:57.130Z,26.05
2018-09-10T12:41:57.036Z,26.01
2018-09-10T12:42:57.023Z,25.95
2018-09-10T12:43:57.012Z,25.91
2018-09-10T12:44:57.002Z,25.91
2018-09-10T12:45:57.033Z,25.91
2018-09-10T12:46:56.984Z,25.76
2018-09-10T12:47:56.971Z,25.69
2018-09-10T12:48:56.959Z,25.60
2018-09-10T12:49:56.948Z,25.65
2018-09-10T12:50:56.959Z,25.60
2018-09-10T12:51:56.932Z,25.64